Time;durP1;ratioP1;P1;durP2;ratioP2;P2;SDS_P1;SDS_P2;PMS_P1;PMS_P2;Temp;Humidity;BMP_temperature;BMP_pressure;BME280_temperature;BME280_humidity;BME280_pressure;Samples;Min_cycle;Max_cycle;Signal;HPM_P1;HPM_P2
2023/12/11 00:01:07;;;;;;;0.20;0.20;;;;;;;4.33;98.28;94584.94;5027951;28;20323;-76
2023/12/11 00:03:34;;;;;;;0.32;0.32;;;;;;;4.26;97.27;94596.00;5029702;28;20220;-78
2023/12/11 00:06:01;;;;;;;0.20;0.20;;;;;;;4.21;97.68;94594.22;5030063;28;20559;-76
2023/12/11 00:08:28;;;;;;;0.20;0.20;;;;;;;4.03;97.34;94584.25;5028622;28;20212;-82
2023/12/11 00:10:55;;;;;;;0.30;0.30;;;;;;;4.31;97.64;94608.56;5030322;28;20228;-77
2023/12/11 00:13:23;;;;;;;0.20;0.20;;;;;;;4.42;97.22;94604.66;5030012;28;20495;-77
2023/12/11 00:15:50;;;;;;;0.32;0.32;;;;;;;4.37;96.90;94605.53;5030170;28;20276;-78
2023/12/11 00:18:17;;;;;;;0.20;0.20;;;;;;;4.41;97.49;94613.78;5029753;28;20591;-77
2023/12/11 00:20:44;;;;;;;0.20;0.20;;;;;;;4.69;97.16;94612.84;5023494;28;20235;-79
2023/12/11 00:23:11;;;;;;;0.30;0.30;;;;;;;4.72;96.69;94604.22;5030623;28;20232;-79
2023/12/11 00:25:38;;;;;;;0.30;0.30;;;;;;;4.76;96.56;94615.19;5030339;28;20671;-76
2023/12/11 00:28:05;;;;;;;0.20;0.20;;;;;;;4.85;96.54;94616.91;5030918;28;20200;-78
2023/12/11 00:30:34;;;;;;;0.52;0.52;;;;;;;5.03;95.54;94617.19;5031145;28;20204;-76
2023/12/11 00:33:01;;;;;;;0.10;0.10;;;;;;;4.85;95.39;94614.22;5027551;28;20227;-79
2023/12/11 00:35:28;;;;;;;0.30;0.30;;;;;;;4.71;96.06;94621.41;5029307;28;20204;-77
2023/12/11 00:37:55;;;;;;;0.45;0.45;;;;;;;4.60;95.84;94611.91;5026924;28;20547;-79
2023/12/11 00:40:22;;;;;;;0.30;0.30;;;;;;;4.44;97.02;94619.38;5024954;28;20301;-80
2023/12/11 00:42:49;;;;;;;0.40;0.40;;;;;;;4.59;97.21;94621.06;5026212;28;20677;-78
2023/12/11 00:45:16;;;;;;;0.60;0.60;;;;;;;4.41;97.29;94619.16;5025355;28;20200;-77
2023/12/11 00:47:44;;;;;;;0.28;0.28;;;;;;;4.38;97.37;94619.72;5027567;28;20200;-77
2023/12/11 00:50:11;;;;;;;0.30;0.30;;;;;;;4.27;97.80;94613.69;5027978;28;20204;-78
2023/12/11 00:52:38;;;;;;;0.30;0.30;;;;;;;4.20;98.30;94618.63;5027111;28;20242;-79
2023/12/11 00:55:06;;;;;;;0.20;0.20;;;;;;;4.19;98.70;94615.16;5030045;28;20201;-79
2023/12/11 00:57:32;;;;;;;0.20;0.20;;;;;;;4.29;99.23;94617.69;5029055;28;20215;-79
2023/12/11 00:59:59;;;;;;;0.50;0.50;;;;;;;4.34;98.85;94624.09;5028835;28;20227;-78
2023/12/11 01:02:26;;;;;;;0.20;0.20;;;;;;;4.47;98.29;94618.00;5029662;28;20205;-78
2023/12/11 01:04:54;;;;;;;0.20;0.20;;;;;;;4.60;98.43;94595.81;5012387;28;20231;-78
2023/12/11 01:07:21;;;;;;;0.10;0.10;;;;;;;4.70;97.18;94611.75;5030131;28;20197;-79
2023/12/11 01:09:48;;;;;;;0.20;0.20;;;;;;;4.71;97.50;94618.72;5028800;28;20196;-79
2023/12/11 01:12:15;;;;;;;0.20;0.20;;;;;;;4.60;98.02;94623.44;5029197;28;20219;-80
2023/12/11 01:14:42;;;;;;;0.20;0.20;;;;;;;4.45;98.15;94620.16;5029617;28;20201;-80
2023/12/11 01:17:09;;;;;;;1.98;0.95;;;;;;;4.42;98.32;94626.09;5027622;28;20209;-78
2023/12/11 01:19:36;;;;;;;0.20;0.20;;;;;;;4.63;98.15;94611.34;5027922;28;20207;-79
2023/12/11 01:22:04;;;;;;;0.30;0.30;;;;;;;4.83;97.46;94605.66;5022241;28;20208;-79
2023/12/11 01:24:31;;;;;;;0.17;0.17;;;;;;;4.80;96.79;94600.06;5028415;28;20605;-79
2023/12/11 01:26:58;;;;;;;0.20;0.20;;;;;;;4.96;96.84;94614.84;5028661;28;20207;-79
2023/12/11 01:29:25;;;;;;;0.20;0.20;;;;;;;4.76;95.36;94610.63;5027968;28;20209;-78
2023/12/11 01:31:52;;;;;;;0.20;0.20;;;;;;;4.67;95.56;94609.66;5024047;28;20207;-78
2023/12/11 01:34:19;;;;;;;0.30;0.30;;;;;;;4.65;95.71;94614.50;5029924;28;20207;-78
2023/12/11 01:36:46;;;;;;;0.20;0.20;;;;;;;4.54;95.37;94613.06;5027019;28;20224;-80
2023/12/11 01:39:14;;;;;;;0.40;0.40;;;;;;;4.56;95.75;94600.97;5027711;28;20299;-79
2023/12/11 01:41:41;;;;;;;0.30;0.30;;;;;;;4.62;95.13;94607.06;5025336;28;20227;-79
2023/12/11 01:44:08;;;;;;;0.20;0.20;;;;;;;4.61;94.71;94595.53;5030419;28;20228;-76
2023/12/11 01:46:35;;;;;;;0.20;0.20;;;;;;;4.72;94.30;94593.50;5033517;28;20210;-77
2023/12/11 01:49:02;;;;;;;0.32;0.32;;;;;;;4.80;93.80;94603.56;5032219;28;20219;-76
2023/12/11 01:51:30;;;;;;;0.22;0.22;;;;;;;4.80;93.51;94595.50;5011638;28;20200;-78
2023/12/11 01:53:57;;;;;;;0.20;0.20;;;;;;;4.79;93.03;94596.59;5030890;28;20224;-76
2023/12/11 01:56:26;;;;;;;0.20;0.20;;;;;;;4.83;93.05;94586.06;5028233;28;20567;-76
2023/12/11 01:58:53;;;;;;;0.30;0.30;;;;;;;4.86;92.69;94588.97;5030901;28;20205;-76
2023/12/11 02:01:24;;;;;;;0.30;0.30;;;;;;;4.88;92.84;94591.38;5032529;28;20204;-77
2023/12/11 02:03:51;;;;;;;0.20;0.20;;;;;;;4.77;92.92;94589.94;5030256;28;20281;-78
2023/12/11 02:06:18;;;;;;;0.20;0.20;;;;;;;4.75;92.95;94595.59;5027929;28;20212;-76
2023/12/11 02:08:46;;;;;;;0.30;0.30;;;;;;;4.73;92.90;94589.72;5030566;28;20579;-77
2023/12/11 02:11:13;;;;;;;0.20;0.20;;;;;;;4.79;92.87;94593.91;5032857;28;20669;-78
2023/12/11 02:13:41;;;;;;;0.77;0.77;;;;;;;4.71;92.51;94581.16;5028462;28;20594;-78
2023/12/11 02:16:14;;;;;;;0.50;0.50;;;;;;;4.71;92.57;94581.16;5028741;28;20212;-76
2023/12/11 02:18:43;;;;;;;0.20;0.20;;;;;;;4.67;92.11;94580.16;5025300;28;20201;-77
2023/12/11 02:21:10;;;;;;;0.20;0.20;;;;;;;4.68;91.75;94579.06;5030859;28;20650;-76
2023/12/11 02:23:42;;;;;;;0.20;0.20;;;;;;;4.70;91.76;94576.88;5030384;28;20231;-78
2023/12/11 02:26:15;;;;;;;0.30;0.30;;;;;;;4.58;92.17;94592.63;5029012;28;20196;-78
2023/12/11 02:28:42;;;;;;;0.20;0.20;;;;;;;4.46;92.54;94578.88;5032243;28;20204;-77
2023/12/11 02:31:10;;;;;;;0.20;0.20;;;;;;;4.41;92.77;94581.59;5031411;28;20215;-77
2023/12/11 02:33:37;;;;;;;0.70;0.70;;;;;;;4.29;93.58;94585.53;5029959;28;20204;-78
2023/12/11 02:36:05;;;;;;;0.20;0.20;;;;;;;4.16;94.75;94588.91;5028260;28;20215;-78
2023/12/11 02:38:31;;;;;;;0.30;0.30;;;;;;;4.03;95.66;94586.94;5023959;28;20209;-78
2023/12/11 02:40:58;;;;;;;0.40;0.40;;;;;;;3.92;96.56;94590.84;5026576;28;20215;-78
2023/12/11 02:43:27;;;;;;;0.20;0.20;;;;;;;3.90;96.93;94603.72;5030175;28;20314;-78
2023/12/11 02:45:54;;;;;;;1.55;0.85;;;;;;;3.77;97.06;94596.38;5032989;28;20208;-77
2023/12/11 02:48:21;;;;;;;1.52;0.93;;;;;;;3.89;96.72;94597.56;5028282;28;20205;-77
2023/12/11 02:50:48;;;;;;;0.20;0.20;;;;;;;3.88;96.61;94597.84;5026637;28;20208;-79
2023/12/11 02:53:15;;;;;;;0.20;0.20;;;;;;;3.80;97.17;94601.16;5032290;28;20308;-80
2023/12/11 02:55:42;;;;;;;0.20;0.20;;;;;;;3.86;97.24;94598.13;5030395;28;20209;-78
2023/12/11 02:58:10;;;;;;;0.20;0.20;;;;;;;3.86;97.05;94591.97;5020179;28;20240;-78
2023/12/11 03:00:39;;;;;;;0.20;0.20;;;;;;;3.99;96.65;94585.91;5030136;28;20209;-78
2023/12/11 03:03:05;;;;;;;0.20;0.20;;;;;;;3.89;96.89;94586.84;5030194;28;20295;-79
2023/12/11 03:05:32;;;;;;;0.30;0.30;;;;;;;3.98;96.77;94594.22;5031993;28;20229;-78
2023/12/11 03:07:59;;;;;;;0.47;0.47;;;;;;;3.99;96.64;94591.25;5031108;28;20207;-78
2023/12/11 03:10:26;;;;;;;0.30;0.30;;;;;;;4.02;96.53;94588.03;5023561;28;20219;-79
2023/12/11 03:12:53;;;;;;;0.40;0.40;;;;;;;4.15;96.04;94583.84;5025129;28;20204;-79
2023/12/11 03:15:20;;;;;;;0.25;0.25;;;;;;;4.15;95.92;94584.63;5030981;28;20200;-79
2023/12/11 03:17:49;;;;;;;1.75;0.30;;;;;;;4.15;95.82;94579.28;5013826;28;20208;-80
2023/12/11 03:20:16;;;;;;;0.20;0.20;;;;;;;4.25;95.30;94589.84;5028717;28;20558;-79
2023/12/11 03:22:44;;;;;;;0.20;0.20;;;;;;;4.25;94.75;94584.50;5028088;28;20209;-79
2023/12/11 03:25:10;;;;;;;0.20;0.20;;;;;;;4.24;94.72;94580.22;5031427;28;20713;-76
2023/12/11 03:27:37;;;;;;;0.30;0.30;;;;;;;4.27;94.82;94582.31;5029652;28;20200;-79
2023/12/11 03:30:05;;;;;;;0.20;0.20;;;;;;;4.11;94.99;94578.25;5031543;28;20580;-77
2023/12/11 03:32:33;;;;;;;0.20;0.20;;;;;;;4.06;95.01;94575.66;5024952;28;20280;-76
2023/12/11 03:35:01;;;;;;;0.20;0.20;;;;;;;4.13;94.80;94584.13;5030840;28;20209;-75
2023/12/11 03:37:28;;;;;;;0.20;0.20;;;;;;;4.09;94.82;94580.44;5030973;28;20206;-81
2023/12/11 03:39:55;;;;;;;0.20;0.20;;;;;;;3.98;95.48;94583.50;5028245;28;20662;-79
2023/12/11 03:42:22;;;;;;;0.47;0.47;;;;;;;3.90;96.06;94582.28;5017229;28;20201;-79
2023/12/11 03:44:49;;;;;;;0.20;0.20;;;;;;;3.84;96.64;94583.41;5029793;28;20299;-78
2023/12/11 03:47:17;;;;;;;0.20;0.20;;;;;;;3.77;96.89;94582.97;5010672;28;20216;-79
2023/12/11 03:49:44;;;;;;;0.20;0.20;;;;;;;3.65;97.03;94580.69;5030011;28;20620;-78
2023/12/11 03:52:13;;;;;;;0.20;0.20;;;;;;;3.66;97.33;94576.16;5026065;28;20250;-79
2023/12/11 03:54:39;;;;;;;0.20;0.20;;;;;;;3.71;96.92;94568.84;5028871;28;20200;-78
2023/12/11 03:57:06;;;;;;;0.20;0.20;;;;;;;3.65;97.53;94575.34;5030704;28;20204;-79
2023/12/11 03:59:34;;;;;;;0.20;0.20;;;;;;;3.67;98.10;94591.13;5023829;28;20219;-79
2023/12/11 04:02:01;;;;;;;0.20;0.20;;;;;;;3.69;98.28;94586.28;5017621;28;20196;-80
2023/12/11 04:04:28;;;;;;;0.20;0.20;;;;;;;3.64;98.52;94583.66;5030960;28;20231;-81
2023/12/11 04:06:55;;;;;;;0.20;0.20;;;;;;;3.70;98.73;94594.00;5028135;28;20691;-81
2023/12/11 04:09:23;;;;;;;0.20;0.20;;;;;;;3.91;98.60;94583.88;5030729;28;20207;-79
2023/12/11 04:11:50;;;;;;;0.20;0.20;;;;;;;3.92;97.91;94582.78;5025435;28;20209;-81
2023/12/11 04:14:17;;;;;;;0.20;0.20;;;;;;;6.05;100.00;94574.75;5029867;28;20201;-76
2023/12/11 04:16:44;;;;;;;0.30;0.30;;;;;;;5.58;100.00;94572.47;5029007;28;20208;-80
2023/12/11 04:19:11;;;;;;;0.40;0.40;;;;;;;4.65;99.41;94587.69;5026329;28;20205;-80
2023/12/11 04:21:39;;;;;;;1.48;1.13;;;;;;;4.15;99.09;94595.34;5028402;28;20204;-80
2023/12/11 04:24:06;;;;;;;0.20;0.20;;;;;;;3.95;99.51;94579.56;5030961;28;20219;-79
2023/12/11 04:26:34;;;;;;;1.85;1.17;;;;;;;3.93;99.85;94587.06;5027311;28;20200;-80
2023/12/11 04:29:01;;;;;;;0.20;0.20;;;;;;;3.96;99.92;94588.38;5030711;28;20291;-80
2023/12/11 04:31:28;;;;;;;0.28;0.28;;;;;;;4.00;99.93;94582.16;5028538;28;20208;-80
2023/12/11 04:33:55;;;;;;;0.38;0.38;;;;;;;4.06;99.85;94589.06;5030697;28;20200;-82
2023/12/11 04:36:22;;;;;;;0.20;0.20;;;;;;;4.09;99.75;94585.81;5031112;28;20204;-82
2023/12/11 04:38:49;;;;;;;0.28;0.28;;;;;;;4.04;99.50;94593.91;5025239;28;20200;-81
2023/12/11 04:41:16;;;;;;;0.90;0.90;;;;;;;3.86;99.91;94592.75;5028387;28;20521;-80
2023/12/11 04:43:44;;;;;;;0.30;0.30;;;;;;;3.79;100.00;94591.53;5028546;28;20201;-80
2023/12/11 04:46:11;;;;;;;0.22;0.22;;;;;;;3.77;100.00;94588.34;5016854;28;20228;-81
2023/12/11 04:48:38;;;;;;;0.20;0.20;;;;;;;3.84;100.00;94580.72;5020684;28;20216;-80
2023/12/11 04:51:05;;;;;;;1.45;0.63;;;;;;;3.93;100.00;94584.38;5010901;28;20205;-80
2023/12/11 04:53:32;;;;;;;0.20;0.20;;;;;;;3.90;100.00;94599.16;5020731;28;20716;-80
2023/12/11 04:55:59;;;;;;;0.22;0.22;;;;;;;3.97;99.94;94588.06;5014023;28;20542;-80
2023/12/11 04:58:26;;;;;;;0.20;0.20;;;;;;;4.04;99.57;94585.84;5021421;28;20519;-80
2023/12/11 05:00:54;;;;;;;0.20;0.20;;;;;;;4.20;99.47;94592.63;5017271;28;20265;-79
2023/12/11 05:03:21;;;;;;;0.20;0.20;;;;;;;4.02;99.20;94589.91;5030555;28;20201;-79
2023/12/11 05:05:48;;;;;;;0.20;0.20;;;;;;;4.00;100.00;94579.47;5014036;28;20240;-78
2023/12/11 05:08:15;;;;;;;0.40;0.40;;;;;;;3.97;99.96;94582.72;5022409;28;20299;-77
2023/12/11 05:10:42;;;;;;;0.30;0.30;;;;;;;3.95;100.00;94590.25;5013093;28;20223;-79
2023/12/11 05:13:09;;;;;;;0.30;0.30;;;;;;;3.95;99.79;94590.25;5011809;28;20308;-78
2023/12/11 05:15:36;;;;;;;0.52;0.52;;;;;;;4.11;99.51;94588.16;5024882;28;20219;-81
2023/12/11 05:18:05;;;;;;;0.20;0.20;;;;;;;4.07;98.58;94587.97;5011139;28;20574;-79
2023/12/11 05:20:32;;;;;;;0.20;0.20;;;;;;;3.91;98.89;94583.88;5010638;28;20205;-79
2023/12/11 05:23:02;;;;;;;0.20;0.20;;;;;;;4.06;99.04;94586.38;5010881;28;20217;-80
2023/12/11 05:25:29;;;;;;;0.20;0.20;;;;;;;4.13;99.37;94592.16;5010810;28;20319;-79
2023/12/11 05:27:56;;;;;;;0.20;0.20;;;;;;;4.26;98.76;94606.75;5022663;28;20212;-79
2023/12/11 05:30:24;;;;;;;0.20;0.20;;;;;;;4.52;97.54;94604.50;5030493;28;20208;-78
2023/12/11 05:32:51;;;;;;;0.20;0.20;;;;;;;4.17;97.07;94611.97;5018521;28;20220;-78
2023/12/11 05:35:19;;;;;;;0.20;0.20;;;;;;;4.02;98.37;94609.47;5030481;28;20207;-78
2023/12/11 05:37:46;;;;;;;0.30;0.30;;;;;;;4.21;97.89;94607.63;5030448;28;20208;-78
2023/12/11 05:40:14;;;;;;;0.20;0.20;;;;;;;4.37;98.67;94607.44;5023109;28;20213;-78
2023/12/11 05:42:40;;;;;;;0.20;0.20;;;;;;;4.58;97.96;94619.47;5014150;28;20569;-78
2023/12/11 05:45:09;;;;;;;0.20;0.20;;;;;;;4.72;97.34;94609.59;5010883;28;20605;-80
2023/12/11 05:47:36;;;;;;;0.20;0.20;;;;;;;4.69;95.36;94618.22;5010642;28;20589;-80
2023/12/11 05:50:03;;;;;;;1.00;1.00;;;;;;;4.61;95.86;94613.50;4992835;28;20637;-80
2023/12/11 05:52:31;;;;;;;0.20;0.20;;;;;;;4.78;96.90;94613.00;5011943;28;20264;-79
2023/12/11 05:54:58;;;;;;;0.20;0.20;;;;;;;4.79;96.14;94618.06;5030351;28;20208;-80
2023/12/11 05:57:25;;;;;;;0.47;0.32;;;;;;;4.77;95.86;94617.56;5015188;28;20217;-80
2023/12/11 05:59:52;;;;;;;0.30;0.30;;;;;;;4.61;96.10;94634.97;5010574;28;20213;-79
2023/12/11 06:02:19;;;;;;;0.30;0.30;;;;;;;4.80;95.90;94625.03;5011693;28;20532;-77
2023/12/11 06:04:46;;;;;;;0.30;0.30;;;;;;;4.87;95.19;94630.84;5022656;28;20204;-78
2023/12/11 06:07:14;;;;;;;0.30;0.30;;;;;;;4.67;95.00;94633.81;5027182;28;20215;-79
2023/12/11 06:09:43;;;;;;;0.20;0.20;;;;;;;4.79;95.79;94631.47;5019326;28;20530;-79
2023/12/11 06:12:10;;;;;;;0.20;0.20;;;;;;;4.90;95.53;94632.16;5025268;28;20232;-77
2023/12/11 06:14:39;;;;;;;0.28;0.28;;;;;;;4.87;93.90;94628.16;5013702;28;20258;-79
2023/12/11 06:17:06;;;;;;;0.20;0.20;;;;;;;4.73;94.22;94632.66;5029947;28;20212;-77
2023/12/11 06:19:33;;;;;;;0.20;0.20;;;;;;;4.67;94.43;94627.63;5028518;28;20292;-78
2023/12/11 06:22:00;;;;;;;0.88;0.63;;;;;;;4.89;93.79;94625.97;5026274;28;20217;-78
2023/12/11 06:24:28;;;;;;;0.40;0.40;;;;;;;4.81;94.32;94633.88;5019943;28;20208;-79
2023/12/11 06:26:56;;;;;;;0.40;0.40;;;;;;;4.97;93.92;94638.72;5016718;28;20706;-77
2023/12/11 06:29:23;;;;;;;0.20;0.20;;;;;;;4.93;94.41;94632.34;5025848;28;20213;-77
2023/12/11 06:31:50;;;;;;;0.30;0.30;;;;;;;5.06;94.78;94630.78;5017636;28;20649;-77
2023/12/11 06:34:17;;;;;;;0.73;0.73;;;;;;;5.05;94.06;94633.81;5032445;28;20228;-78
2023/12/11 06:36:43;;;;;;;4.90;2.47;;;;;;;5.02;94.92;94626.31;5032783;28;20208;-78
2023/12/11 06:39:10;;;;;;;0.20;0.20;;;;;;;4.83;94.56;94629.81;5042455;28;20203;-78
2023/12/11 06:41:37;;;;;;;0.20;0.20;;;;;;;4.77;94.69;94620.25;5014040;28;20563;-78
2023/12/11 06:44:05;;;;;;;0.77;0.77;;;;;;;4.99;94.01;94631.19;5037538;28;20573;-77
2023/12/11 06:46:32;;;;;;;0.20;0.20;;;;;;;4.93;93.33;94626.16;5024994;28;20227;-76
2023/12/11 06:48:59;;;;;;;0.38;0.38;;;;;;;4.79;93.73;94626.09;5037232;28;20604;-77
2023/12/11 06:51:27;;;;;;;0.68;0.68;;;;;;;4.86;93.85;94631.91;5044883;28;20211;-78
2023/12/11 06:53:58;;;;;;;0.30;0.30;;;;;;;4.80;93.34;94641.13;5032234;28;20670;-78
2023/12/11 06:56:26;;;;;;;0.20;0.20;;;;;;;4.94;93.15;94636.63;5040072;28;20242;-78
2023/12/11 06:58:53;;;;;;;0.20;0.20;;;;;;;5.08;93.04;94643.94;5036462;28;20219;-77
2023/12/11 07:01:21;;;;;;;0.20;0.20;;;;;;;5.24;93.09;94648.78;5028256;28;20643;-78
2023/12/11 07:03:49;;;;;;;0.20;0.20;;;;;;;5.34;92.69;94647.78;5041186;28;20200;-79
2023/12/11 07:06:17;;;;;;;0.55;0.50;;;;;;;5.47;92.64;94646.25;5040705;28;20255;-78
2023/12/11 07:08:43;;;;;;;0.40;0.40;;;;;;;5.53;92.20;94666.56;5018986;28;20212;-78
2023/12/11 07:11:12;;;;;;;0.40;0.40;;;;;;;5.72;92.04;94637.75;5032241;28;20204;-78
2023/12/11 07:13:41;;;;;;;0.30;0.30;;;;;;;5.97;90.89;94655.34;5030924;28;20203;-79
2023/12/11 07:16:08;;;;;;;0.20;0.20;;;;;;;5.91;90.54;94667.25;5031984;28;20220;-78
2023/12/11 07:18:37;;;;;;;0.30;0.30;;;;;;;6.26;90.69;94669.28;5033065;28;20844;-78
2023/12/11 07:21:08;;;;;;;0.55;0.55;;;;;;;6.59;89.60;94661.06;5019022;28;20212;-79
2023/12/11 07:23:35;;;;;;;0.20;0.20;;;;;;;6.73;88.21;94667.25;5018388;28;20306;-78
2023/12/11 07:26:04;;;;;;;0.20;0.20;;;;;;;6.46;88.56;94669.97;5031981;28;20224;-79
2023/12/11 07:28:31;;;;;;;0.20;0.20;;;;;;;6.57;87.51;94674.03;5028003;28;20255;-83
2023/12/11 07:30:58;;;;;;;0.20;0.20;;;;;;;6.53;86.16;94656.91;5014759;28;20241;-80
2023/12/11 07:33:26;;;;;;;0.20;0.20;;;;;;;6.23;87.96;94675.25;5015058;28;20216;-84
2023/12/11 07:35:55;;;;;;;0.30;0.30;;;;;;;6.37;85.72;94670.69;5013583;28;20212;-81
2023/12/11 07:38:23;;;;;;;0.45;0.45;;;;;;;6.20;84.07;94675.06;5016166;28;20286;-84
2023/12/11 07:40:50;;;;;;;0.30;0.30;;;;;;;6.06;82.91;94681.22;5012526;28;20220;-81
2023/12/11 07:43:17;;;;;;;0.45;0.40;;;;;;;6.15;82.73;94680.56;5013051;28;20216;-80
2023/12/11 07:45:44;;;;;;;0.20;0.20;;;;;;;6.10;82.38;94681.44;5014059;28;20264;-78
2023/12/11 07:48:11;;;;;;;0.30;0.30;;;;;;;6.16;82.40;94685.59;5012326;28;20209;-81
2023/12/11 07:50:39;;;;;;;0.20;0.20;;;;;;;6.22;82.51;94689.81;5025981;28;20211;-81
2023/12/11 07:53:07;;;;;;;1.13;0.57;;;;;;;6.09;82.23;94687.09;5018980;28;20266;-76
2023/12/11 07:55:35;;;;;;;0.25;0.25;;;;;;;6.28;82.17;94683.25;5017416;28;20205;-81
2023/12/11 07:58:03;;;;;;;0.20;0.20;;;;;;;6.33;81.97;94672.38;5017951;28;20330;-78
2023/12/11 08:00:30;;;;;;;0.28;0.28;;;;;;;6.34;82.17;94681.25;5024427;28;20204;-79
2023/12/11 08:03:00;;;;;;;0.40;0.40;;;;;;;6.20;81.43;94683.13;5022838;28;20212;-75
2023/12/11 08:05:30;;;;;;;0.20;0.20;;;;;;;6.12;82.12;94684.63;5031968;28;20319;-77
2023/12/11 08:07:57;;;;;;;0.30;0.30;;;;;;;6.06;82.15;94669.66;5011863;28;20255;-79
2023/12/11 08:10:25;;;;;;;0.20;0.20;;;;;;;6.22;82.05;94684.44;5015404;28;20223;-79
2023/12/11 08:12:52;;;;;;;0.20;0.20;;;;;;;6.16;82.21;94674.03;4993699;28;20695;-77
2023/12/11 08:15:19;;;;;;;0.28;0.28;;;;;;;6.17;81.60;94684.50;5016984;28;20204;-79
2023/12/11 08:17:46;;;;;;;0.22;0.22;;;;;;;6.18;80.92;94677.25;5021612;28;20235;-79
2023/12/11 08:20:16;;;;;;;0.20;0.20;;;;;;;6.14;80.69;94681.66;5011978;28;20228;-79
2023/12/11 08:22:44;;;;;;;0.30;0.30;;;;;;;6.07;80.73;94673.97;5011815;28;20592;-78
2023/12/11 08:25:13;;;;;;;2.08;0.50;;;;;;;6.06;80.67;94680.44;5013749;28;20219;-79
2023/12/11 08:27:42;;;;;;;0.40;0.40;;;;;;;6.01;80.61;94684.00;5012538;28;20230;-81
2023/12/11 08:30:10;;;;;;;0.20;0.20;;;;;;;5.99;80.74;94685.41;5015688;28;20217;-80
2023/12/11 08:32:40;;;;;;;0.32;0.32;;;;;;;5.99;80.59;94680.84;5016676;28;20275;-78
2023/12/11 08:35:08;;;;;;;0.30;0.30;;;;;;;6.04;80.37;94671.84;5035045;28;20209;-79
2023/12/11 08:37:35;;;;;;;0.20;0.20;;;;;;;6.14;80.65;94677.06;5032814;28;20212;-78
2023/12/11 08:40:03;;;;;;;0.30;0.30;;;;;;;6.05;80.80;94681.53;5027971;28;20209;-79
2023/12/11 08:42:32;;;;;;;0.20;0.20;;;;;;;6.06;80.40;94675.84;5014979;28;20259;-81
2023/12/11 08:45:01;;;;;;;0.30;0.30;;;;;;;6.16;79.87;94684.81;5013848;28;20216;-80
2023/12/11 08:47:28;;;;;;;0.40;0.40;;;;;;;6.14;80.55;94671.69;5015324;28;20240;-80
2023/12/11 08:49:55;;;;;;;0.20;0.20;;;;;;;6.16;80.35;94664.09;5014732;28;20215;-82
2023/12/11 08:52:22;;;;;;;0.20;0.20;;;;;;;6.34;79.68;94671.28;5025504;28;20236;-81
2023/12/11 08:54:50;;;;;;;0.50;0.50;;;;;;;6.58;78.78;94667.56;5030609;28;20210;-80
2023/12/11 08:57:17;;;;;;;2.88;1.15;;;;;;;6.42;78.57;94640.97;5030765;28;20219;-81
2023/12/11 08:59:44;;;;;;;0.20;0.20;;;;;;;6.38;79.47;94650.75;5030688;28;20215;-81
2023/12/11 09:02:14;;;;;;;0.20;0.20;;;;;;;6.59;79.01;94651.13;5030384;28;20216;-79
2023/12/11 09:04:41;;;;;;;0.20;0.20;;;;;;;6.47;78.56;94636.59;5022411;28;20981;-78
2023/12/11 09:07:09;;;;;;;0.20;0.20;;;;;;;6.43;79.32;94631.00;5017027;28;20236;-76
2023/12/11 09:09:37;;;;;;;0.20;0.20;;;;;;;6.56;78.61;94643.63;5029387;28;20638;-80
2023/12/11 09:12:04;;;;;;;0.20;0.20;;;;;;;6.64;78.83;94642.94;5029709;28;20218;-79
2023/12/11 09:14:32;;;;;;;0.20;0.20;;;;;;;6.79;78.07;94617.59;5020406;28;20265;-78
2023/12/11 09:16:59;;;;;;;0.20;0.20;;;;;;;6.93;77.36;94617.53;5012840;28;20212;-79
2023/12/11 09:19:28;;;;;;;0.30;0.30;;;;;;;7.35;83.10;94618.97;5002253;28;20231;-77
2023/12/11 09:21:56;;;;;;;0.30;0.30;;;;;;;7.76;78.85;94603.34;5009917;28;20216;-79
2023/12/11 09:24:22;;;;;;;0.50;0.50;;;;;;;7.63;75.19;94604.22;5010007;28;20259;-79
2023/12/11 09:26:49;;;;;;;0.40;0.40;;;;;;;6.96;76.30;94609.66;5026538;28;20236;-76
2023/12/11 09:29:16;;;;;;;0.32;0.32;;;;;;;6.89;77.24;94611.97;5029000;28;20573;-78
2023/12/11 09:31:44;;;;;;;0.85;0.82;;;;;;;6.99;76.85;94609.03;5010577;28;20220;-79
2023/12/11 09:34:10;;;;;;;0.30;0.30;;;;;;;7.11;76.05;94598.50;5020900;28;20656;-79
2023/12/11 09:36:39;;;;;;;0.25;0.25;;;;;;;7.49;75.55;94598.13;5024686;28;20296;-79
2023/12/11 09:39:07;;;;;;;0.40;0.40;;;;;;;7.66;74.99;94595.50;5015653;28;20204;-79
2023/12/11 09:41:35;;;;;;;0.20;0.20;;;;;;;7.59;74.63;94595.16;5024103;28;20316;-79
2023/12/11 09:44:03;;;;;;;0.20;0.20;;;;;;;7.52;75.56;94596.72;5010491;28;20297;-78
2023/12/11 09:46:33;;;;;;;0.20;0.20;;;;;;;7.85;73.83;94595.28;5009836;28;20263;-79
2023/12/11 09:49:00;;;;;;;0.30;0.30;;;;;;;7.73;74.70;94592.38;5009870;28;20208;-78
2023/12/11 09:51:27;;;;;;;0.40;0.40;;;;;;;7.56;75.17;94592.28;5010844;28;20211;-78
2023/12/11 09:53:57;;;;;;;0.25;0.25;;;;;;;7.88;74.21;94588.47;5009779;28;20232;-78
2023/12/11 09:56:25;;;;;;;0.20;0.20;;;;;;;8.25;74.04;94577.16;5009899;28;20201;-78
2023/12/11 09:58:52;;;;;;;0.30;0.30;;;;;;;8.48;72.37;94570.56;5010316;28;20223;-79
2023/12/11 10:01:20;;;;;;;0.20;0.20;;;;;;;8.38;70.79;94570.88;5011170;28;20592;-79
2023/12/11 10:03:46;;;;;;;0.40;0.40;;;;;;;8.33;72.24;94562.94;5009967;28;20692;-79
2023/12/11 10:06:13;;;;;;;0.30;0.30;;;;;;;8.36;72.19;94567.69;5014452;28;20585;-80
2023/12/11 10:08:42;;;;;;;0.20;0.20;;;;;;;8.49;70.85;94572.16;5027193;28;20222;-79
2023/12/11 10:11:11;;;;;;;0.20;0.20;;;;;;;8.43;70.10;94556.44;5014315;28;20243;-80
2023/12/11 10:13:38;;;;;;;0.20;0.20;;;;;;;8.37;70.15;94555.00;5013932;28;20664;-78
2023/12/11 10:16:06;;;;;;;0.20;0.20;;;;;;;8.28;70.91;94554.97;5014168;28;20205;-76
2023/12/11 10:18:33;;;;;;;0.60;0.60;;;;;;;8.32;71.21;94555.97;5014424;28;20247;-77
2023/12/11 10:21:00;;;;;;;0.20;0.20;;;;;;;8.59;70.66;94559.50;5014105;28;20205;-78
2023/12/11 10:23:30;;;;;;;0.30;0.30;;;;;;;8.65;70.57;94553.59;5013838;28;20278;-80
2023/12/11 10:26:06;;;;;;;0.30;0.30;;;;;;;8.72;72.01;94553.94;5014016;28;20209;-79
2023/12/11 10:28:34;;;;;;;0.65;0.65;;;;;;;8.81;70.58;94553.94;5014276;28;20212;-79
2023/12/11 10:31:04;;;;;;;0.40;0.40;;;;;;;8.87;70.50;94549.97;5013875;28;20209;-78
2023/12/11 10:33:31;;;;;;;1.55;0.88;;;;;;;8.78;70.73;94551.84;5020024;28;20610;-79
2023/12/11 10:36:10;;;;;;;0.30;0.30;;;;;;;8.86;71.14;94545.69;5033572;28;20223;-78
2023/12/11 10:38:37;;;;;;;0.20;0.20;;;;;;;8.79;69.57;94538.03;5033720;28;20196;-78
2023/12/11 10:41:04;;;;;;;1.85;1.27;;;;;;;8.99;71.54;94544.72;5019020;28;20293;-78
2023/12/11 10:43:42;;;;;;;0.32;0.32;;;;;;;9.18;69.86;94542.44;5013734;28;20657;-80
2023/12/11 10:46:09;;;;;;;0.30;0.30;;;;;;;9.24;68.50;94549.28;5013467;28;20193;-78
2023/12/11 10:48:36;;;;;;;0.38;0.38;;;;;;;9.32;68.26;94541.47;5023034;28;20208;-80
2023/12/11 10:51:04;;;;;;;1.50;1.25;;;;;;;9.60;69.40;94529.94;5030492;28;20573;-77
2023/12/11 10:53:31;;;;;;;0.50;0.50;;;;;;;9.31;67.68;94539.88;5013236;28;20581;-78
2023/12/11 10:55:59;;;;;;;0.47;0.47;;;;;;;9.37;67.92;94530.50;5013064;28;20212;-77
2023/12/11 10:58:27;;;;;;;0.35;0.35;;;;;;;8.87;68.32;94533.75;5013257;28;20213;-79
2023/12/11 11:00:57;;;;;;;0.30;0.30;;;;;;;8.96;69.61;94531.84;5013311;28;20216;-79
2023/12/11 11:03:25;;;;;;;0.25;0.25;;;;;;;8.90;69.86;94522.31;5013124;28;20216;-78
2023/12/11 11:05:53;;;;;;;0.20;0.20;;;;;;;8.89;70.80;94526.09;5012541;28;20212;-77
2023/12/11 11:08:33;;;;;;;0.20;0.20;;;;;;;8.81;71.15;94519.63;5013233;28;20244;-78
2023/12/11 11:11:05;;;;;;;0.20;0.20;;;;;;;8.49;72.51;94507.38;5012915;28;20232;-79
2023/12/11 11:13:38;;;;;;;0.73;0.73;;;;;;;8.38;73.22;94513.41;5030634;28;20204;-78
2023/12/11 11:16:07;;;;;;;0.30;0.30;;;;;;;8.28;73.35;94517.19;5012232;28;20205;-78
2023/12/11 11:19:03;;;;;;;0.45;0.45;;;;;;;8.52;73.96;94501.34;5026068;28;20217;-79
2023/12/11 11:21:30;;;;;;;0.35;0.35;;;;;;;8.43;73.23;94503.25;5009547;28;20223;-79
2023/12/11 11:23:57;;;;;;;0.20;0.20;;;;;;;8.37;72.68;94496.41;5024698;28;20240;-79
2023/12/11 11:26:34;;;;;;;0.50;0.50;;;;;;;8.24;73.93;94499.22;5011177;28;20221;-77
2023/12/11 11:29:01;;;;;;;0.20;0.20;;;;;;;8.41;74.70;94505.47;5011268;28;20212;-77
2023/12/11 11:31:49;;;;;;;0.20;0.20;;;;;;;8.52;73.78;94511.34;5012881;28;20613;-78
2023/12/11 11:34:16;;;;;;;0.50;0.50;;;;;;;8.92;73.55;94511.97;5024616;28;20556;-78
2023/12/11 11:36:47;;;;;;;0.40;0.40;;;;;;;9.11;72.78;94501.63;5031773;28;20211;-77
2023/12/11 11:39:14;;;;;;;0.30;0.30;;;;;;;9.14;71.30;94495.59;5032302;28;20230;-77
2023/12/11 11:41:43;;;;;;;0.20;0.20;;;;;;;8.83;71.70;94484.19;5032023;28;20216;-79
2023/12/11 11:44:10;;;;;;;0.30;0.30;;;;;;;8.56;72.23;94488.03;5031896;28;20244;-78